Time;durP1;ratioP1;P1;durP2;ratioP2;P2;SDS_P1;SDS_P2;PMS_P1;PMS_P2;Temp;Humidity;BMP_temperature;BMP_pressure;BME280_temperature;BME280_humidity;BME280_pressure;Samples;Min_cycle;Max_cycle;Signal;HPM_P1;HPM_P2
2022/04/18 00:00:00;;;;;;;3.15;2.80;;;;;;;;;;5055974;28;20172;-72
2022/04/18 00:02:26;;;;;;;3.50;2.40;;;;;;;;;;5055471;28;20222;-73
2022/04/18 00:04:52;;;;;;;3.70;2.37;;;;;;;;;;5055820;28;20407;-71
2022/04/18 00:07:18;;;;;;;3.13;2.30;;;;;;;;;;5055663;28;20803;-74
2022/04/18 00:09:44;;;;;;;3.30;2.10;;;;;;;;;;5037789;28;20456;-72
2022/04/18 00:12:10;;;;;;;2.63;2.30;;;;;;;;;;5055094;28;20470;-75
2022/04/18 00:14:36;;;;;;;3.58;2.30;;;;;;;;;;5055550;28;20405;-74
2022/04/18 00:17:02;;;;;;;2.60;2.40;;;;;;;;;;5055583;28;20257;-73
2022/04/18 00:19:28;;;;;;;3.00;2.30;;;;;;;;;;5055427;28;20401;-73
2022/04/18 00:21:54;;;;;;;6.93;2.65;;;;;;;;;;5055076;28;20558;-72
2022/04/18 00:24:21;;;;;;;5.10;2.77;;;;;;;;;;5055461;28;20192;-73
2022/04/18 00:26:47;;;;;;;2.95;2.15;;;;;;;;;;5055649;28;20411;-72
2022/04/18 00:29:13;;;;;;;5.25;2.60;;;;;;;;;;5055503;28;20615;-72
2022/04/18 00:31:39;;;;;;;4.03;2.55;;;;;;;;;;5054841;28;20204;-73
2022/04/18 00:34:05;;;;;;;3.13;2.53;;;;;;;;;;5055339;28;20178;-72
2022/04/18 00:36:31;;;;;;;4.45;2.83;;;;;;;;;;5055171;28;20174;-72
2022/04/18 00:38:58;;;;;;;4.90;2.45;;;;;;;;;;5055241;28;20200;-74
2022/04/18 00:41:24;;;;;;;11.00;3.00;;;;;;;;;;5054706;28;20197;-72
2022/04/18 00:43:50;;;;;;;4.63;2.30;;;;;;;;;;5053602;28;20195;-70
2022/04/18 00:46:17;;;;;;;3.20;2.60;;;;;;;;;;5053706;28;20188;-73
2022/04/18 00:48:43;;;;;;;3.55;2.58;;;;;;;;;;5054925;28;20699;-73
2022/04/18 00:51:15;;;;;;;4.35;2.80;;;;;;;;;;5053187;28;20209;-73
2022/04/18 00:53:42;;;;;;;4.93;2.83;;;;;;;;;;5053988;28;20755;-72
2022/04/18 00:56:09;;;;;;;3.20;2.90;;;;;;;;;;5054656;28;20527;-73
2022/04/18 00:58:37;;;;;;;3.67;2.30;;;;;;;;;;5054723;28;20210;-74
2022/04/18 01:01:03;;;;;;;3.72;2.67;;;;;;;;;;5054343;28;20176;-72
2022/04/18 01:03:32;;;;;;;3.88;3.40;;;;;;;;;;5054703;28;20171;-73
2022/04/18 01:06:02;;;;;;;3.55;3.03;;;;;;;;;;5054549;28;20183;-74
2022/04/18 01:08:32;;;;;;;7.90;2.35;;;;;;;;;;5054622;28;20251;-73
2022/04/18 01:10:59;;;;;;;4.45;2.95;;;;;;;;;;5054340;28;20249;-73
2022/04/18 01:13:25;;;;;;;3.85;2.60;;;;;;;;;;5054633;28;20221;-74
2022/04/18 01:15:54;;;;;;;5.25;3.05;;;;;;;;;;5054667;28;20179;-71
2022/04/18 01:18:21;;;;;;;3.67;2.63;;;;;;;;;;5054306;28;20208;-73
2022/04/18 01:20:47;;;;;;;4.15;2.47;;;;;;;;;;5054039;28;20176;-73
2022/04/18 01:23:13;;;;;;;3.60;2.53;;;;;;;;;;5052981;28;20215;-73
2022/04/18 01:31:09;;;;;;;7.18;2.70;;;;;;;;;;5054089;28;20222;-73
2022/04/18 01:33:35;;;;;;;3.40;2.33;;;;;;;;;;5053961;28;20211;-72
2022/04/18 01:36:01;;;;;;;4.27;2.60;;;;;;;;;;5053914;28;20275;-72
2022/04/18 01:38:27;;;;;;;2.92;2.60;;;;;;;;;;5053804;28;20410;-74
2022/04/18 01:40:54;;;;;;;3.92;3.05;;;;;;;;;;5053652;28;20195;-74
2022/04/18 01:43:20;;;;;;;3.22;2.78;;;;;;;;;;5053758;28;20652;-73
2022/04/18 01:45:46;;;;;;;3.13;2.50;;;;;;;;;;5053901;28;20551;-73
2022/04/18 01:48:12;;;;;;;3.15;2.85;;;;;;;;;;5053808;28;20184;-71
2022/04/18 01:50:38;;;;;;;6.97;2.47;;;;;;;;;;5052274;28;20178;-73
2022/04/18 01:53:04;;;;;;;3.42;2.55;;;;;;;;;;5053496;28;20214;-71
2022/04/18 01:55:30;;;;;;;4.38;2.90;;;;;;;;;;5053736;28;20178;-74
2022/04/18 01:57:56;;;;;;;5.35;2.90;;;;;;;;;;5053804;28;20170;-70
2022/04/18 02:00:22;;;;;;;3.10;2.53;;;;;;;;;;5053107;28;20535;-74
2022/04/18 02:02:48;;;;;;;4.07;3.05;;;;;;;;;;5053349;28;20433;-73
2022/04/18 02:05:14;;;;;;;3.20;2.87;;;;;;;;;;5052899;28;20195;-73
2022/04/18 02:07:40;;;;;;;3.28;2.40;;;;;;;;;;5053603;28;20767;-71
2022/04/18 02:10:07;;;;;;;4.27;2.63;;;;;;;;;;5053379;28;20199;-74
2022/04/18 02:12:33;;;;;;;6.38;2.60;;;;;;;;;;5053014;28;20458;-72
2022/04/18 02:14:59;;;;;;;4.80;2.83;;;;;;;;;;5053463;28;20598;-73
2022/04/18 02:17:25;;;;;;;4.70;2.60;;;;;;;;;;5053309;28;20254;-73
2022/04/18 02:19:52;;;;;;;7.03;2.57;;;;;;;;;;5053361;28;20213;-73
2022/04/18 02:22:18;;;;;;;3.53;2.72;;;;;;;;;;5052890;28;20432;-71
2022/04/18 02:24:44;;;;;;;4.22;3.15;;;;;;;;;;5053064;28;20598;-71
2022/04/18 02:27:10;;;;;;;4.00;2.50;;;;;;;;;;5053239;28;20182;-72
2022/04/18 02:29:36;;;;;;;6.10;2.30;;;;;;;;;;5053164;28;20421;-73
2022/04/18 02:34:47;;;;;;;5.45;2.55;;;;;;;;;;5052368;28;20456;-73
2022/04/18 02:37:13;;;;;;;2.53;2.20;;;;;;;;;;5053235;28;20588;-74
2022/04/18 02:39:39;;;;;;;5.07;3.30;;;;;;;;;;5051859;28;20423;-71
2022/04/18 02:42:05;;;;;;;4.70;2.67;;;;;;;;;;5051436;28;20435;-73
2022/04/18 02:44:31;;;;;;;4.50;2.70;;;;;;;;;;5051819;28;20453;-73
2022/04/18 02:46:57;;;;;;;4.20;2.60;;;;;;;;;;5052962;28;20241;-73
2022/04/18 02:49:23;;;;;;;3.47;2.35;;;;;;;;;;5051661;28;20421;-70
2022/04/18 02:51:49;;;;;;;3.38;2.33;;;;;;;;;;5052329;28;20196;-73
2022/04/18 02:54:15;;;;;;;3.73;2.63;;;;;;;;;;5053018;28;20182;-73
2022/04/18 02:56:41;;;;;;;3.28;2.67;;;;;;;;;;5052692;28;20448;-73
2022/04/18 02:59:07;;;;;;;2.50;2.13;;;;;;;;;;5052792;28;20276;-70
2022/04/18 03:01:33;;;;;;;7.50;2.80;;;;;;;;;;5052406;28;20447;-73
2022/04/18 03:03:59;;;;;;;5.60;2.90;;;;;;;;;;5052789;28;20467;-71
2022/04/18 03:06:25;;;;;;;3.97;2.70;;;;;;;;;;5052947;28;20183;-73
2022/04/18 03:08:51;;;;;;;3.30;2.30;;;;;;;;;;5052668;28;20930;-73
2022/04/18 03:11:17;;;;;;;3.07;2.60;;;;;;;;;;5052354;28;20434;-71
2022/04/18 03:13:46;;;;;;;7.80;3.57;;;;;;;;;;5052691;28;20456;-73
2022/04/18 03:16:13;;;;;;;4.50;2.63;;;;;;;;;;5052729;28;20424;-71
2022/04/18 03:18:38;;;;;;;4.88;3.20;;;;;;;;;;5056640;28;20176;-71
2022/04/18 03:21:05;;;;;;;4.83;2.77;;;;;;;;;;5056052;28;20630;-73
2022/04/18 03:23:31;;;;;;;5.22;2.70;;;;;;;;;;5056598;28;20459;-71
2022/04/18 03:25:57;;;;;;;4.85;2.92;;;;;;;;;;5056712;28;20175;-72
2022/04/18 03:28:24;;;;;;;3.50;2.77;;;;;;;;;;5056673;28;20271;-72
2022/04/18 03:30:50;;;;;;;2.92;2.55;;;;;;;;;;5056017;28;20448;-71
2022/04/18 03:33:16;;;;;;;4.35;2.35;;;;;;;;;;5056276;28;20204;-72
2022/04/18 03:41:11;;;;;;;3.30;2.30;;;;;;;;;;5055952;28;20206;-71
2022/04/18 03:43:38;;;;;;;4.78;2.75;;;;;;;;;;5056314;28;20171;-72
2022/04/18 03:46:04;;;;;;;3.35;2.58;;;;;;;;;;5056256;28;20184;-71
2022/04/18 03:48:30;;;;;;;6.90;3.67;;;;;;;;;;5056082;28;20647;-73
2022/04/18 03:50:57;;;;;;;2.90;2.30;;;;;;;;;;5055596;28;20410;-71
2022/04/18 03:53:23;;;;;;;4.50;2.65;;;;;;;;;;5055757;28;20460;-73
2022/04/18 03:55:49;;;;;;;5.00;2.70;;;;;;;;;;5055885;28;20179;-73
2022/04/18 03:58:15;;;;;;;3.40;2.50;;;;;;;;;;5054775;28;20184;-70
2022/04/18 04:00:44;;;;;;;5.03;2.77;;;;;;;;;;5054351;28;20414;-74
2022/04/18 04:03:13;;;;;;;6.30;3.33;;;;;;;;;;5055633;28;20429;-71
2022/04/18 04:05:40;;;;;;;3.75;2.67;;;;;;;;;;5054341;28;20179;-71
2022/04/18 04:08:06;;;;;;;4.28;2.45;;;;;;;;;;5055676;28;20625;-73
2022/04/18 04:10:32;;;;;;;3.25;2.35;;;;;;;;;;5055411;28;20203;-72
2022/04/18 04:12:59;;;;;;;4.05;2.70;;;;;;;;;;5055790;28;20214;-71
2022/04/18 04:15:25;;;;;;;5.60;3.30;;;;;;;;;;5055361;28;20178;-72
2022/04/18 04:17:51;;;;;;;4.37;2.93;;;;;;;;;;5055719;28;20536;-72
2022/04/18 04:20:17;;;;;;;5.25;2.75;;;;;;;;;;5055284;28;20423;-71
2022/04/18 04:22:48;;;;;;;4.00;2.58;;;;;;;;;;5055360;28;20198;-73
2022/04/18 04:25:14;;;;;;;4.57;2.60;;;;;;;;;;5055365;28;20171;-73
2022/04/18 04:27:40;;;;;;;3.50;2.83;;;;;;;;;;5055037;28;20203;-72
2022/04/18 04:30:07;;;;;;;3.08;2.60;;;;;;;;;;5054381;28;20203;-74
2022/04/18 04:32:33;;;;;;;2.95;2.70;;;;;;;;;;5054985;28;20227;-72
2022/04/18 04:34:59;;;;;;;3.22;2.53;;;;;;;;;;5055571;28;20184;-74
2022/04/18 04:37:25;;;;;;;5.67;3.10;;;;;;;;;;5055316;28;20231;-72
2022/04/18 04:39:51;;;;;;;5.60;3.43;;;;;;;;;;5055130;28;20939;-71
2022/04/18 04:42:17;;;;;;;4.13;2.60;;;;;;;;;;5054833;28;20562;-71
2022/04/18 04:44:43;;;;;;;4.13;3.10;;;;;;;;;;5055299;28;21080;-74
2022/04/18 04:47:09;;;;;;;3.17;2.55;;;;;;;;;;5054892;28;20221;-72
2022/04/18 04:49:35;;;;;;;5.80;2.78;;;;;;;;;;5054866;28;20182;-72
2022/04/18 04:52:01;;;;;;;5.57;3.27;;;;;;;;;;5054274;28;20209;-73
2022/04/18 04:54:27;;;;;;;4.45;3.10;;;;;;;;;;5054916;28;20447;-74
2022/04/18 04:56:53;;;;;;;5.30;3.03;;;;;;;;;;5054873;28;20240;-71
2022/04/18 04:59:19;;;;;;;2.83;2.43;;;;;;;;;;5054991;28;20497;-71
2022/04/18 05:01:45;;;;;;;9.30;3.03;;;;;;;;;;5054165;28;20483;-71
2022/04/18 05:04:11;;;;;;;4.37;2.70;;;;;;;;;;5053361;28;21283;-71
2022/04/18 05:06:37;;;;;;;3.00;2.67;;;;;;;;;;5054596;28;20816;-72
2022/04/18 05:09:03;;;;;;;3.15;2.70;;;;;;;;;;5054509;28;20428;-73
2022/04/18 05:11:29;;;;;;;3.93;2.70;;;;;;;;;;5054152;28;20211;-72
2022/04/18 05:13:55;;;;;;;3.33;2.30;;;;;;;;;;5054315;28;20562;-72
2022/04/18 05:16:21;;;;;;;6.77;3.50;;;;;;;;;;5054418;28;20411;-71
2022/04/18 05:18:47;;;;;;;4.97;3.60;;;;;;;;;;5054365;28;20401;-71
2022/04/18 05:21:13;;;;;;;4.22;3.00;;;;;;;;;;5054004;28;20231;-72
2022/04/18 05:23:39;;;;;;;8.07;3.50;;;;;;;;;;5054616;28;20203;-72
2022/04/18 05:26:05;;;;;;;3.47;2.80;;;;;;;;;;5054388;28;20256;-71
2022/04/18 05:28:31;;;;;;;3.37;2.43;;;;;;;;;;5054470;28;20762;-72
2022/04/18 05:30:58;;;;;;;6.05;3.00;;;;;;;;;;5052661;28;20443;-73
2022/04/18 05:33:24;;;;;;;7.65;3.15;;;;;;;;;;5054153;28;20207;-74
2022/04/18 05:35:50;;;;;;;7.20;3.42;;;;;;;;;;5054190;28;20654;-72
2022/04/18 05:38:16;;;;;;;3.58;2.78;;;;;;;;;;5053965;28;20191;-71
2022/04/18 05:40:42;;;;;;;4.38;2.80;;;;;;;;;;5053442;28;20170;-71
2022/04/18 05:43:08;;;;;;;7.75;3.35;;;;;;;;;;5053914;28;20189;-72
2022/04/18 05:45:35;;;;;;;3.35;2.97;;;;;;;;;;5053865;28;20182;-73
2022/04/18 05:48:01;;;;;;;3.72;2.72;;;;;;;;;;5052576;28;20537;-72
2022/04/18 05:50:27;;;;;;;3.47;3.17;;;;;;;;;;5052252;28;20178;-74
2022/04/18 05:52:54;;;;;;;5.80;3.17;;;;;;;;;;5053639;28;20710;-73
2022/04/18 05:55:20;;;;;;;7.05;3.35;;;;;;;;;;5053666;28;20512;-71
2022/04/18 05:57:45;;;;;;;3.90;3.35;;;;;;;;;;5053691;28;20180;-72
2022/04/18 06:00:12;;;;;;;4.00;3.07;;;;;;;;;;5053223;28;20544;-73
2022/04/18 06:02:38;;;;;;;3.60;2.83;;;;;;;;;;5053390;28;20427;-73
2022/04/18 06:05:04;;;;;;;6.63;3.10;;;;;;;;;;5053589;28;20539;-73
2022/04/18 06:07:30;;;;;;;3.75;3.38;;;;;;;;;;5053439;28;20591;-70
2022/04/18 06:09:56;;;;;;;3.40;3.10;;;;;;;;;;5053279;28;20194;-73
2022/04/18 06:12:22;;;;;;;3.90;3.13;;;;;;;;;;5052783;28;20298;-71
2022/04/18 06:14:48;;;;;;;8.25;3.25;;;;;;;;;;5053567;28;20410;-75
2022/04/18 06:17:14;;;;;;;4.90;3.13;;;;;;;;;;5053316;28;20190;-73
2022/04/18 06:19:40;;;;;;;7.07;3.60;;;;;;;;;;5053332;28;20406;-73
2022/04/18 06:22:06;;;;;;;4.45;3.40;;;;;;;;;;5052899;28;20200;-72
2022/04/18 06:24:32;;;;;;;4.22;3.22;;;;;;;;;;5053271;28;20218;-72
2022/04/18 06:26:58;;;;;;;8.53;3.17;;;;;;;;;;5052128;28;20213;-71
2022/04/18 06:29:24;;;;;;;8.30;3.10;;;;;;;;;;5053208;28;20419;-72
2022/04/18 06:31:53;;;;;;;3.43;2.90;;;;;;;;;;5051354;28;20214;-72
2022/04/18 06:34:19;;;;;;;4.20;3.40;;;;;;;;;;5053475;28;20421;-71
2022/04/18 06:36:45;;;;;;;4.83;3.60;;;;;;;;;;5053070;28;20541;-72
2022/04/18 06:39:11;;;;;;;4.70;2.90;;;;;;;;;;5053255;28;20430;-73
2022/04/18 06:41:37;;;;;;;5.03;2.90;;;;;;;;;;5052785;28;20438;-74
2022/04/18 06:44:03;;;;;;;4.10;2.72;;;;;;;;;;5052967;28;20465;-73
2022/04/18 06:46:29;;;;;;;2.85;2.55;;;;;;;;;;5052978;28;20199;-72
2022/04/18 06:48:55;;;;;;;4.28;3.22;;;;;;;;;;5051706;28;20189;-71
2022/04/18 06:51:21;;;;;;;12.03;2.80;;;;;;;;;;5052500;28;20544;-71
2022/04/18 06:53:47;;;;;;;4.85;2.70;;;;;;;;;;5056932;28;20464;-73
2022/04/18 06:58:57;;;;;;;6.35;2.95;;;;;;;;;;5057195;28;20509;-72
2022/04/18 07:01:23;;;;;;;3.50;3.17;;;;;;;;;;5055228;28;20204;-74
2022/04/18 07:03:49;;;;;;;3.70;2.40;;;;;;;;;;5056857;28;20429;-72
2022/04/18 07:06:15;;;;;;;3.30;2.33;;;;;;;;;;5055623;28;20986;-73
2022/04/18 07:08:41;;;;;;;2.50;2.03;;;;;;;;;;5056504;28;20468;-73
2022/04/18 07:11:07;;;;;;;6.15;2.53;;;;;;;;;;5056375;28;20463;-73
2022/04/18 07:13:33;;;;;;;3.40;2.37;;;;;;;;;;5056904;28;20657;-72
2022/04/18 07:16:00;;;;;;;4.03;2.42;;;;;;;;;;5056810;28;20413;-71
2022/04/18 07:18:26;;;;;;;4.53;2.40;;;;;;;;;;5056704;28;20170;-72
2022/04/18 07:20:52;;;;;;;3.17;2.85;;;;;;;;;;5056195;28;20174;-71
2022/04/18 07:23:18;;;;;;;3.47;3.00;;;;;;;;;;5056514;28;20187;-73
2022/04/18 07:25:44;;;;;;;3.50;2.73;;;;;;;;;;5056541;28;20409;-71
2022/04/18 07:28:10;;;;;;;3.97;2.83;;;;;;;;;;5056537;28;20415;-73
2022/04/18 07:30:36;;;;;;;4.23;2.70;;;;;;;;;;5056346;28;20404;-72
2022/04/18 07:33:02;;;;;;;3.87;2.50;;;;;;;;;;5056357;28;20580;-71
2022/04/18 07:35:28;;;;;;;3.47;2.80;;;;;;;;;;5056583;28;20416;-73
2022/04/18 07:40:42;;;;;;;4.20;2.73;;;;;;;;;;5056168;28;20483;-73
2022/04/18 07:43:08;;;;;;;3.15;2.40;;;;;;;;;;5055975;28;20459;-71
2022/04/18 07:45:35;;;;;;;3.63;2.67;;;;;;;;;;5056237;28;20535;-73
2022/04/18 07:48:01;;;;;;;4.40;3.00;;;;;;;;;;5056159;28;20428;-73
2022/04/18 07:51:31;;;;;;;2.83;2.43;;;;;;;;;;5055688;28;20432;-71
2022/04/18 07:53:13;;;;;;;3.70;2.30;;;;;;;;;;5055733;28;20474;-72
2022/04/18 07:55:39;;;;;;;4.53;2.30;;;;;;;;;;5055918;28;20493;-72
2022/04/18 07:58:05;;;;;;;3.20;2.30;;;;;;;;;;5056028;28;20968;-73
2022/04/18 08:00:31;;;;;;;3.77;2.67;;;;;;;;;;5055478;28;20451;-71
2022/04/18 08:02:57;;;;;;;3.50;2.40;;;;;;;;;;5055686;28;20468;-70
2022/04/18 08:05:23;;;;;;;2.73;2.23;;;;;;;;;;5055624;28;20419;-72
2022/04/18 08:07:49;;;;;;;4.20;2.17;;;;;;;;;;5055768;28;20420;-71
2022/04/18 08:10:15;;;;;;;4.40;2.60;;;;;;;;;;5055355;28;20479;-74
2022/04/18 08:12:41;;;;;;;6.43;2.50;;;;;;;;;;5055608;28;20467;-71
2022/04/18 08:15:08;;;;;;;4.77;2.63;;;;;;;;;;5055528;28;20897;-73
2022/04/18 08:17:34;;;;;;;2.60;2.40;;;;;;;;;;5055478;28;20420;-73
2022/04/18 08:20:00;;;;;;;2.20;2.00;;;;;;;;;;5055654;28;20500;-71
2022/04/18 08:22:26;;;;;;;3.83;2.60;;;;;;;;;;5055182;28;20471;-71
2022/04/18 08:24:52;;;;;;;4.47;3.10;;;;;;;;;;5055650;28;20444;-72
2022/04/18 08:27:18;;;;;;;3.60;2.70;;;;;;;;;;5055382;28;20733;-71
2022/04/18 08:29:46;;;;;;;3.30;2.03;;;;;;;;;;5055308;28;20404;-74
2022/04/18 08:32:12;;;;;;;4.03;2.67;;;;;;;;;;5054828;28;20460;-72
2022/04/18 08:34:38;;;;;;;3.37;2.03;;;;;;;;;;5055379;28;20379;-72
2022/04/18 08:37:04;;;;;;;4.03;2.27;;;;;;;;;;5055326;28;20412;-71
2022/04/18 08:39:31;;;;;;;3.80;2.60;;;;;;;;;;5055124;28;20420;-72
2022/04/18 08:41:59;;;;;;;6.20;2.97;;;;;;;;;;5053657;28;20428;-73
2022/04/18 08:44:26;;;;;;;5.10;2.30;;;;;;;;;;5055421;28;20851;-72
2022/04/18 08:46:52;;;;;;;2.87;1.87;;;;;;;;;;5055336;28;20447;-72
2022/04/18 08:54:50;;;;;;;7.07;2.60;;;;;;;;;;5055102;28;20451;-72
2022/04/18 08:57:16;;;;;;;3.77;2.40;;;;;;;;;;5055025;28;20400;-71
2022/04/18 08:59:42;;;;;;;2.90;2.50;;;;;;;;;;5054790;28;20410;-72
2022/04/18 09:02:08;;;;;;;4.30;2.20;;;;;;;;;;5054424;28;20432;-72
2022/04/18 09:04:34;;;;;;;3.30;2.17;;;;;;;;;;5054735;28;20408;-72
2022/04/18 09:07:10;;;;;;;4.00;2.30;;;;;;;;;;5054669;28;20421;-75
2022/04/18 09:09:37;;;;;;;4.23;2.70;;;;;;;;;;5054436;28;20420;-75
2022/04/18 09:12:03;;;;;;;2.93;2.40;;;;;;;;;;5054022;28;20432;-73
2022/04/18 09:14:31;;;;;;;3.60;2.63;;;;;;;;;;5053999;28;20404;-71
2022/04/18 09:16:57;;;;;;;3.40;2.30;;;;;;;;;;5054518;28;20409;-72
2022/04/18 09:19:23;;;;;;;4.27;3.07;;;;;;;;;;5054569;28;20448;-73
2022/04/18 09:21:58;;;;;;;3.33;2.60;;;;;;;;;;5053918;28;20424;-72
2022/04/18 09:24:31;;;;;;;2.97;2.57;;;;;;;;;;5054418;28;20457;-71
2022/04/18 09:26:57;;;;;;;2.73;2.37;;;;;;;;;;5054433;28;20784;-74
2022/04/18 09:29:23;;;;;;;3.77;3.37;;;;;;;;;;5054271;28;20404;-72
2022/04/18 09:31:53;;;;;;;3.20;2.90;;;;;;;;;;5053675;28;20856;-71
2022/04/18 09:34:20;;;;;;;4.60;2.60;;;;;;;;;;5054454;28;20424;-72
2022/04/18 09:36:46;;;;;;;2.63;2.43;;;;;;;;;;5054409;28;20495;-71
2022/04/18 09:39:12;;;;;;;3.00;2.30;;;;;;;;;;5054159;28;20518;-73
2022/04/18 09:41:38;;;;;;;3.00;2.20;;;;;;;;;;5053856;28;20425;-75
2022/04/18 09:44:04;;;;;;;2.60;2.40;;;;;;;;;;5052707;28;20561;-72
2022/04/18 09:46:30;;;;;;;3.43;2.70;;;;;;;;;;5053143;28;20851;-72
2022/04/18 09:49:01;;;;;;;2.60;2.40;;;;;;;;;;5054102;28;20420;-74
2022/04/18 09:51:35;;;;;;;5.63;2.43;;;;;;;;;;5053473;28;20432;-73
2022/04/18 09:54:01;;;;;;;2.53;2.33;;;;;;;;;;5053625;28;20460;-72
2022/04/18 09:56:27;;;;;;;5.00;2.70;;;;;;;;;;5052474;28;20483;-73
2022/04/18 09:58:55;;;;;;;2.60;2.40;;;;;;;;;;5053765;28;20420;-72
2022/04/18 10:01:22;;;;;;;2.83;2.63;;;;;;;;;;5053401;28;20435;-75
2022/04/18 10:03:50;;;;;;;4.53;2.77;;;;;;;;;;5053527;28;20459;-74
2022/04/18 10:06:16;;;;;;;4.47;2.50;;;;;;;;;;5053446;28;20419;-75
2022/04/18 10:08:42;;;;;;;3.90;3.13;;;;;;;;;;5053707;28;20424;-73
2022/04/18 10:11:09;;;;;;;3.57;2.40;;;;;;;;;;5053187;28;20422;-73
2022/04/18 10:13:36;;;;;;;2.53;2.33;;;;;;;;;;5053464;28;20467;-73
2022/04/18 10:16:03;;;;;;;3.00;2.77;;;;;;;;;;5053345;28;20904;-75
2022/04/18 10:18:29;;;;;;;3.40;3.00;;;;;;;;;;5053220;28;20447;-71
2022/04/18 10:21:07;;;;;;;3.80;2.47;;;;;;;;;;5053027;28;20439;-73
2022/04/18 10:23:52;;;;;;;3.00;2.70;;;;;;;;;;5052007;28;20893;-74
2022/04/18 10:26:34;;;;;;;9.40;3.27;;;;;;;;;;5052462;28;20408;-72
2022/04/18 10:29:06;;;;;;;2.57;1.93;;;;;;;;;;5053101;28;20493;-72
2022/04/18 10:31:33;;;;;;;2.70;2.33;;;;;;;;;;5053116;28;20435;-73
2022/04/18 10:33:59;;;;;;;2.60;2.40;;;;;;;;;;5053190;28;20463;-72
2022/04/18 10:36:31;;;;;;;4.80;2.50;;;;;;;;;;5052988;28;20419;-73
2022/04/18 10:38:57;;;;;;;4.03;3.47;;;;;;;;;;5052977;28;20411;-73
2022/04/18 10:41:36;;;;;;;3.20;2.90;;;;;;;;;;5052641;28;20789;-73
2022/04/18 10:44:02;;;;;;;4.33;2.90;;;;;;;;;;5053119;28;20408;-72
2022/04/18 10:46:29;;;;;;;2.87;2.50;;;;;;;;;;5052898;28;20413;-72
2022/04/18 10:48:59;;;;;;;3.40;2.80;;;;;;;;;;5053099;28;20776;-73
2022/04/18 10:51:38;;;;;;;3.83;2.87;;;;;;;;;;5052767;28;20418;-74
2022/04/18 10:54:09;;;;;;;3.87;2.70;;;;;;;;;;5052921;28;20468;-73
2022/04/18 10:56:52;;;;;;;5.23;2.80;;;;;;;;;;5051587;28;20466;-73
2022/04/18 10:59:19;;;;;;;3.40;3.10;;;;;;;;;;5052926;28;20935;-72
2022/04/18 11:01:46;;;;;;;3.67;3.37;;;;;;;;;;5052487;28;20424;-74
2022/04/18 11:04:12;;;;;;;3.20;2.80;;;;;;;;;;5052745;28;20414;-74
2022/04/18 11:06:38;;;;;;;3.53;2.80;;;;;;;;;;5052671;28;20914;-75
2022/04/18 11:09:13;;;;;;;4.00;2.67;;;;;;;;;;5052805;28;20497;-74
2022/04/18 11:11:54;;;;;;;3.47;2.70;;;;;;;;;;5052358;28;20432;-74
2022/04/18 11:14:20;;;;;;;3.50;2.80;;;;;;;;;;5052712;28;20418;-75
2022/04/18 11:16:47;;;;;;;8.07;2.80;;;;;;;;;;5052528;28;20393;-73
2022/04/18 11:19:16;;;;;;;4.13;2.23;;;;;;;;;;5052710;28;20473;-73
2022/04/18 11:21:55;;;;;;;4.30;2.87;;;;;;;;;;5052302;28;20444;-74
2022/04/18 11:24:37;;;;;;;3.60;2.70;;;;;;;;;;5051629;28;20466;-71
2022/04/18 11:27:03;;;;;;;3.20;2.90;;;;;;;;;;5052502;28;20408;-74
2022/04/18 11:29:33;;;;;;;3.90;3.50;;;;;;;;;;5052558;28;20445;-71
2022/04/18 11:32:00;;;;;;;3.40;3.10;;;;;;;;;;5052436;28;20504;-71
2022/04/18 11:34:27;;;;;;;2.90;2.30;;;;;;;;;;5052638;28;20398;-73
2022/04/18 11:36:55;;;;;;;2.90;2.40;;;;;;;;;;5052383;28;20911;-74
2022/04/18 11:39:21;;;;;;;3.07;2.77;;;;;;;;;;5055853;28;20408;-73
2022/04/18 11:41:47;;;;;;;3.17;2.93;;;;;;;;;;5055887;28;20434;-73
2022/04/18 11:44:18;;;;;;;3.40;2.53;;;;;;;;;;5056333;28;20461;-74
2022/04/18 11:46:44;;;;;;;4.43;2.80;;;;;;;;;;5056177;28;20410;-74
2022/04/18 11:49:10;;;;;;;3.60;2.70;;;;;;;;;;5056111;28;20434;-76
2022/04/18 11:51:37;;;;;;;4.00;2.53;;;;;;;;;;5055602;28;20471;-73
2022/04/18 11:54:03;;;;;;;3.30;2.63;;;;;;;;;;5056012;28;20471;-73
2022/04/18 11:56:29;;;;;;;3.20;2.77;;;;;;;;;;5054730;28;20430;-72
2022/04/18 11:58:55;;;;;;;7.57;2.63;;;;;;;;;;5055801;28;20416;-72
2022/04/18 12:06:50;;;;;;;4.00;3.00;;;;;;;;;;5055992;28;20942;-72
2022/04/18 12:09:18;;;;;;;2.70;2.50;;;;;;;;;;5055499;28;20432;-71
2022/04/18 12:11:44;;;;;;;2.80;2.30;;;;;;;;;;5055262;28;21060;-73
2022/04/18 12:14:10;;;;;;;2.80;2.47;;;;;;;;;;5055415;28;20495;-73
2022/04/18 12:16:38;;;;;;;2.80;2.57;;;;;;;;;;5055375;28;20405;-71
2022/04/18 12:19:05;;;;;;;3.30;2.63;;;;;;;;;;5055517;28;20497;-72
2022/04/18 12:21:31;;;;;;;3.07;2.77;;;;;;;;;;5053853;28;20459;-74
2022/04/18 12:23:58;;;;;;;3.00;2.40;;;;;;;;;;5055558;28;20418;-72
2022/04/18 12:26:25;;;;;;;2.80;2.60;;;;;;;;;;5055390;28;20411;-72
2022/04/18 12:28:57;;;;;;;3.70;3.20;;;;;;;;;;5055410;28;20417;-72
2022/04/18 12:31:23;;;;;;;3.43;3.10;;;;;;;;;;5054955;28;20443;-72
2022/04/18 12:33:50;;;;;;;3.10;2.77;;;;;;;;;;5055156;28;20484;-71
2022/04/18 12:36:25;;;;;;;2.37;2.17;;;;;;;;;;5055268;28;20429;-72
2022/04/18 12:38:51;;;;;;;4.30;2.70;;;;;;;;;;5055183;28;20423;-72
2022/04/18 12:41:26;;;;;;;2.73;2.23;;;;;;;;;;5054554;28;20428;-73
2022/04/18 12:43:52;;;;;;;2.37;2.17;;;;;;;;;;5055341;28;20409;-73
2022/04/18 12:46:23;;;;;;;3.33;2.67;;;;;;;;;;5053827;28;20793;-73
2022/04/18 12:48:51;;;;;;;2.47;1.80;;;;;;;;;;5054837;28;20789;-72
2022/04/18 12:51:18;;;;;;;2.20;2.00;;;;;;;;;;5053771;28;20788;-75
2022/04/18 12:54:10;;;;;;;1.87;1.70;;;;;;;;;;5054827;28;20486;-73
2022/04/18 12:56:44;;;;;;;3.00;2.20;;;;;;;;;;5054517;28;20891;-71
2022/04/18 12:59:10;;;;;;;2.90;2.20;;;;;;;;;;5054875;28;20412;-74
2022/04/18 13:01:39;;;;;;;2.70;2.00;;;;;;;;;;5054203;28;20432;-72
2022/04/18 13:04:27;;;;;;;2.50;2.30;;;;;;;;;;5053343;28;20421;-74
2022/04/18 13:06:57;;;;;;;1.70;1.60;;;;;;;;;;5054883;28;20762;-73
2022/04/18 13:09:23;;;;;;;5.77;2.13;;;;;;;;;;5054425;28;20838;-74
2022/04/18 13:11:49;;;;;;;2.17;1.60;;;;;;;;;;5054043;28;20495;-73
2022/04/18 13:14:15;;;;;;;2.73;1.53;;;;;;;;;;5054425;28;20468;-73
2022/04/18 13:16:44;;;;;;;2.40;1.80;;;;;;;;;;5054435;28;20417;-72
2022/04/18 13:19:12;;;;;;;2.47;1.80;;;;;;;;;;5054516;28;20409;-71
2022/04/18 13:21:38;;;;;;;4.03;1.80;;;;;;;;;;5053899;28;20760;-73
2022/04/18 13:24:05;;;;;;;1.50;1.40;;;;;;;;;;5054468;28;20416;-74
2022/04/18 13:26:32;;;;;;;2.70;1.83;;;;;;;;;;5054546;28;20433;-74
2022/04/18 13:28:58;;;;;;;1.60;1.50;;;;;;;;;;5054534;28;20463;-74
2022/04/18 13:31:25;;;;;;;2.50;1.40;;;;;;;;;;5053782;28;20799;-73
2022/04/18 13:33:51;;;;;;;2.37;1.50;;;;;;;;;;5053999;28;20455;-73
2022/04/18 13:36:33;;;;;;;2.70;1.60;;;;;;;;;;5054272;28;20405;-73
2022/04/18 13:39:12;;;;;;;2.90;1.67;;;;;;;;;;5054158;28;20417;-72
2022/04/18 13:41:39;;;;;;;3.00;1.50;;;;;;;;;;5053845;28;20450;-73
2022/04/18 13:44:05;;;;;;;2.80;2.00;;;;;;;;;;5054190;28;20519;-73
2022/04/18 13:46:32;;;;;;;1.93;1.73;;;;;;;;;;5054146;28;20493;-73
2022/04/18 13:48:58;;;;;;;2.00;1.50;;;;;;;;;;5053994;28;20479;-72
2022/04/18 13:51:25;;;;;;;1.63;1.30;;;;;;;;;;5053496;28;20429;-75
2022/04/18 13:53:52;;;;;;;1.47;1.37;;;;;;;;;;5053550;28;20821;-74
2022/04/18 13:56:19;;;;;;;1.90;1.33;;;;;;;;;;5053884;28;20873;-72
2022/04/18 13:58:45;;;;;;;2.13;1.40;;;;;;;;;;5053722;28;20413;-73
2022/04/18 14:01:11;;;;;;;2.90;1.63;;;;;;;;;;5053022;28;20433;-71
2022/04/18 14:03:39;;;;;;;3.17;2.37;;;;;;;;;;5053524;28;20500;-73
2022/04/18 14:06:06;;;;;;;1.40;1.23;;;;;;;;;;5053486;28;20409;-72
2022/04/18 14:08:36;;;;;;;2.00;1.30;;;;;;;;;;5053543;28;20423;-72
2022/04/18 14:11:02;;;;;;;1.70;1.53;;;;;;;;;;5053411;28;20419;-74
2022/04/18 14:13:28;;;;;;;1.53;1.23;;;;;;;;;;5053520;28;20633;-71
2022/04/18 14:21:24;;;;;;;1.97;1.40;;;;;;;;;;5053298;28;20448;-72
2022/04/18 14:23:50;;;;;;;1.63;1.37;;;;;;;;;;5053263;28;20408;-72
2022/04/18 14:26:17;;;;;;;1.63;1.30;;;;;;;;;;5053240;28;20413;-74
2022/04/18 14:28:43;;;;;;;2.20;1.67;;;;;;;;;;5053178;28;20412;-74
2022/04/18 14:31:09;;;;;;;1.50;1.40;;;;;;;;;;5052884;28;20522;-72
2022/04/18 14:33:36;;;;;;;1.80;1.20;;;;;;;;;;5053399;28;20483;-71
2022/04/18 14:36:03;;;;;;;1.67;1.37;;;;;;;;;;5053330;28;20819;-74
2022/04/18 14:38:30;;;;;;;3.83;2.03;;;;;;;;;;5053252;28;20478;-73
2022/04/18 14:40:56;;;;;;;1.83;1.60;;;;;;;;;;5052942;28;20415;-74
2022/04/18 14:43:21;;;;;;;3.57;2.50;;;;;;;;;;5053357;28;20408;-71
2022/04/18 14:45:47;;;;;;;2.80;1.50;;;;;;;;;;5053229;28;20416;-74
2022/04/18 14:48:13;;;;;;;2.87;1.57;;;;;;;;;;5053076;28;20870;-73
2022/04/18 14:50:40;;;;;;;1.60;1.50;;;;;;;;;;5052567;28;20437;-71
2022/04/18 14:53:12;;;;;;;2.07;1.40;;;;;;;;;;5052858;28;20469;-73
2022/04/18 14:55:39;;;;;;;2.53;1.77;;;;;;;;;;5053197;28;20422;-72
2022/04/18 14:58:05;;;;;;;1.40;1.20;;;;;;;;;;5053331;28;20412;-73
2022/04/18 15:00:33;;;;;;;1.83;1.40;;;;;;;;;;5052621;28;20899;-74
2022/04/18 15:02:59;;;;;;;2.00;1.80;;;;;;;;;;5052995;28;20503;-73
2022/04/18 15:05:26;;;;;;;2.00;1.50;;;;;;;;;;5052970;28;20439;-71
2022/04/18 15:07:52;;;;;;;1.60;1.30;;;;;;;;;;5052957;28;20767;-71
2022/04/18 15:10:18;;;;;;;2.83;1.43;;;;;;;;;;5052363;28;20451;-72
2022/04/18 15:12:44;;;;;;;1.67;1.40;;;;;;;;;;5053078;28;20535;-74
2022/04/18 15:15:10;;;;;;;2.07;1.70;;;;;;;;;;5056782;28;20516;-73
2022/04/18 15:17:36;;;;;;;2.67;2.13;;;;;;;;;;5056671;28;20417;-72